(°C)
11°
14°
16°
17°
18°
19°
(°C)
11°
13°
14°
16°
16°
ЮЗ
ЗЮЗ
ЗЮЗ
ЗЮЗ
ЗЮЗ
ЮЗ
ЮЗ
(км/ч)
4-11
5-9
6-10
6-13
8-13
9-14
9-15
(мм)
0
0
0
0
0
0
0
(%)
0
0
0
0
0
0
0

Sun elevation

/ 25.8°
sun-icon
UV 6
05:56
21:04
Убывающая луна (301°)
04:40
15:03

METAR for 51.15°С 51.54°В (UARR)

Время Условия Температура/
Точка росы
Ветер Видимость Погода Облачность Давление Изменить Необработанный
VFR 10°C / 2°C variable 2kt >10km - Clouds and Visibility OK 1019 No Significant change UARR 060330Z VRB01MPS CAVOK 10/02 Q1019 R22/CLRD70 NOSIG RMK QFE761/1014
VFR 8°C / 2°C variable 2kt >10km - Clouds and Visibility OK 1019 No Significant change UARR 060300Z VRB01MPS CAVOK 08/02 Q1019 R22/CLRD70 NOSIG RMK QFE760/1014
VFR 5°C / 1°C 180º 4kt >10km - Clouds and Visibility OK 1019 No Significant change UARR 060230Z 18002MPS CAVOK 05/01 Q1019 R22/CLRD70 NOSIG RMK QFE760/1014
VFR 3°C / 0°C 180º 4kt >10km - Clouds and Visibility OK 1018 No Significant change UARR 060200Z 18002MPS CAVOK 03/M00 Q1018 R22/CLRD70 NOSIG RMK QFE760/1014
VFR 1°C / -1°C 170º 6kt >10km - Clouds and Visibility OK 1018 No Significant change UARR 060130Z 17003MPS CAVOK 01/M01 Q1018 R22/CLRD70 NOSIG RMK QFE760/1013
VFR 0°C / -2°C 180º 6kt >10km - Clouds and Visibility OK 1018 No Significant change UARR 060100Z 18003MPS CAVOK 00/M02 Q1018 R22/CLRD70 NOSIG RMK QFE760/1013
VFR 0°C / -2°C 190º 6kt >10km - Clouds and Visibility OK 1017 No Significant change UARR 060030Z 19003MPS CAVOK 00/M02 Q1017 R22/CLRD70 NOSIG RMK QFE759/1013
VFR 0°C / -2°C 220º 4kt >10km - Clouds and Visibility OK 1017 No Significant change UARR 060000Z 22002MPS CAVOK 00/M02 Q1017 R22/CLRD70 NOSIG RMK QFE759/1012
VFR 2°C / -2°C 230º 4kt >10km - Clouds and Visibility OK 1017 No Significant change UARR 052300Z 23002MPS CAVOK 02/M02 Q1017 R22/CLRD70 NOSIG RMK QFE759/1012
VFR 3°C / -1°C 260º 4kt >10km - Clouds and Visibility OK 1017 No Significant change UARR 052230Z 26002MPS CAVOK 03/M01 Q1017 R22/CLRD70 NOSIG RMK QFE759/1012
VFR 4°C / -1°C 250º 4kt >10km - Clouds and Visibility OK 1016 No Significant change UARR 052200Z 25002MPS CAVOK 04/M01 Q1016 R22/CLRD70 NOSIG RMK QFE759/1012
VFR 4°C / -1°C 250º 6kt >10km - Clouds and Visibility OK 1016 No Significant change UARR 052130Z 25003MPS CAVOK 04/M01 Q1016 R22/CLRD70 NOSIG RMK QFE758/1011
VFR 6°C / 0°C 240º 6kt >10km - Clouds and Visibility OK 1016 No Significant change UARR 052100Z 24003MPS CAVOK 06/M00 Q1016 R22/CLRD70 NOSIG RMK QFE758/1011
VFR 3°C / 0°C 230º 8kt >10km - Clouds and Visibility OK 1016 No Significant change UARR 052030Z 23004MPS CAVOK 03/M00 Q1016 R22/CLRD70 NOSIG RMK QFE758/1011
VFR 3°C / -1°C 230º 6kt >10km - Clouds and Visibility OK 1016 No Significant change UARR 052000Z 23003MPS CAVOK 03/M01 Q1016 R22/CLRD70 NOSIG RMK QFE758/1011
VFR 4°C / -2°C 220º 4kt >10km - Clouds and Visibility OK 1015 No Significant change UARR 051930Z 22002MPS CAVOK 04/M02 Q1015 R22/CLRD70 NOSIG RMK QFE758/1011
VFR 6°C / -1°C 230º 6kt >10km - Clouds and Visibility OK 1015 No Significant change UARR 051900Z 23003MPS CAVOK 06/M01 Q1015 R22/CLRD70 NOSIG RMK QFE758/1010
VFR 6°C / -1°C 230º 4kt >10km - Clouds and Visibility OK 1015 No Significant change UARR 051830Z 23002MPS CAVOK 06/M01 Q1015 R22/CLRD70 NOSIG RMK QFE758/1010
VFR 8°C / -1°C 260º 6kt >10km - Clouds and Visibility OK 1015 No Significant change UARR 051800Z 26003MPS CAVOK 08/M01 Q1015 R22/CLRD70 NOSIG RMK QFE757/1010
VFR 9°C / -1°C 260º 6kt >10km - Clouds and Visibility OK 1015 No Significant change UARR 051730Z 26003MPS CAVOK 09/M01 Q1015 R22/CLRD70 NOSIG RMK QFE757/1010
VFR 9°C / -1°C 270º 6kt >10km - Clouds and Visibility OK 1014 No Significant change UARR 051700Z 27003MPS CAVOK 09/M01 Q1014 R22/CLRD70 NOSIG RMK QFE757/1010
VFR 10°C / -1°C 290º 8kt >10km - Clouds and Visibility OK 1014 No Significant change UARR 051630Z 29004MPS CAVOK 10/M01 Q1014 R22/CLRD70 NOSIG RMK QFE757/1010
VFR 12°C / -2°C 300º 10kt >10km - Clouds and Visibility OK 1014 No Significant change UARR 051600Z 30005MPS CAVOK 12/M02 Q1014 R22/CLRD70 NOSIG RMK QFE757/1009
VFR 13°C / -2°C 290º 12kt >10km - Clouds and Visibility OK 1013 No Significant change UARR 051530Z 29006MPS CAVOK 13/M02 Q1013 R22/CLRD70 NOSIG RMK QFE756/1009

VFR

10°C / 2°C

[Больше]
Ветер variable 2kt
Видимость >10km
Погода -
Облачность Clouds and Visibility OK
Давление 1019
Изменить No Significant change
Необработанный UARR 060330Z VRB01MPS CAVOK 10/02 Q1019 R22/CLRD70 NOSIG RMK QFE761/1014

VFR

8°C / 2°C

[Больше]
Ветер variable 2kt
Видимость >10km
Погода -
Облачность Clouds and Visibility OK
Давление 1019
Изменить No Significant change
Необработанный UARR 060300Z VRB01MPS CAVOK 08/02 Q1019 R22/CLRD70 NOSIG RMK QFE760/1014

VFR

5°C / 1°C

[Больше]
Ветер 180º 4kt
Видимость >10km
Погода -
Облачность Clouds and Visibility OK
Давление 1019
Изменить No Significant change
Необработанный UARR 060230Z 18002MPS CAVOK 05/01 Q1019 R22/CLRD70 NOSIG RMK QFE760/1014

VFR

3°C / 0°C

[Больше]
Ветер 180º 4kt
Видимость >10km
Погода -
Облачность Clouds and Visibility OK
Давление 1018
Изменить No Significant change
Необработанный UARR 060200Z 18002MPS CAVOK 03/M00 Q1018 R22/CLRD70 NOSIG RMK QFE760/1014

VFR

1°C / -1°C

[Больше]
Ветер 170º 6kt
Видимость >10km
Погода -
Облачность Clouds and Visibility OK
Давление 1018
Изменить No Significant change
Необработанный UARR 060130Z 17003MPS CAVOK 01/M01 Q1018 R22/CLRD70 NOSIG RMK QFE760/1013

VFR

0°C / -2°C

[Больше]
Ветер 180º 6kt
Видимость >10km
Погода -
Облачность Clouds and Visibility OK
Давление 1018
Изменить No Significant change
Необработанный UARR 060100Z 18003MPS CAVOK 00/M02 Q1018 R22/CLRD70 NOSIG RMK QFE760/1013

VFR

0°C / -2°C

[Больше]
Ветер 190º 6kt
Видимость >10km
Погода -
Облачность Clouds and Visibility OK
Давление 1017
Изменить No Significant change
Необработанный UARR 060030Z 19003MPS CAVOK 00/M02 Q1017 R22/CLRD70 NOSIG RMK QFE759/1013

VFR

0°C / -2°C

[Больше]
Ветер 220º 4kt
Видимость >10km
Погода -
Облачность Clouds and Visibility OK
Давление 1017
Изменить No Significant change
Необработанный UARR 060000Z 22002MPS CAVOK 00/M02 Q1017 R22/CLRD70 NOSIG RMK QFE759/1012

VFR

2°C / -2°C

[Больше]
Ветер 230º 4kt
Видимость >10km
Погода -
Облачность Clouds and Visibility OK
Давление 1017
Изменить No Significant change
Необработанный UARR 052300Z 23002MPS CAVOK 02/M02 Q1017 R22/CLRD70 NOSIG RMK QFE759/1012

VFR

3°C / -1°C

[Больше]
Ветер 260º 4kt
Видимость >10km
Погода -
Облачность Clouds and Visibility OK
Давление 1017
Изменить No Significant change
Необработанный UARR 052230Z 26002MPS CAVOK 03/M01 Q1017 R22/CLRD70 NOSIG RMK QFE759/1012

VFR

4°C / -1°C

[Больше]
Ветер 250º 4kt
Видимость >10km
Погода -
Облачность Clouds and Visibility OK
Давление 1016
Изменить No Significant change
Необработанный UARR 052200Z 25002MPS CAVOK 04/M01 Q1016 R22/CLRD70 NOSIG RMK QFE759/1012

VFR

4°C / -1°C

[Больше]
Ветер 250º 6kt
Видимость >10km
Погода -
Облачность Clouds and Visibility OK
Давление 1016
Изменить No Significant change
Необработанный UARR 052130Z 25003MPS CAVOK 04/M01 Q1016 R22/CLRD70 NOSIG RMK QFE758/1011

VFR

6°C / 0°C

[Больше]
Ветер 240º 6kt
Видимость >10km
Погода -
Облачность Clouds and Visibility OK
Давление 1016
Изменить No Significant change
Необработанный UARR 052100Z 24003MPS CAVOK 06/M00 Q1016 R22/CLRD70 NOSIG RMK QFE758/1011

VFR

3°C / 0°C

[Больше]
Ветер 230º 8kt
Видимость >10km
Погода -
Облачность Clouds and Visibility OK
Давление 1016
Изменить No Significant change
Необработанный UARR 052030Z 23004MPS CAVOK 03/M00 Q1016 R22/CLRD70 NOSIG RMK QFE758/1011

VFR

3°C / -1°C

[Больше]
Ветер 230º 6kt
Видимость >10km
Погода -
Облачность Clouds and Visibility OK
Давление 1016
Изменить No Significant change
Необработанный UARR 052000Z 23003MPS CAVOK 03/M01 Q1016 R22/CLRD70 NOSIG RMK QFE758/1011

VFR

4°C / -2°C

[Больше]
Ветер 220º 4kt
Видимость >10km
Погода -
Облачность Clouds and Visibility OK
Давление 1015
Изменить No Significant change
Необработанный UARR 051930Z 22002MPS CAVOK 04/M02 Q1015 R22/CLRD70 NOSIG RMK QFE758/1011

VFR

6°C / -1°C

[Больше]
Ветер 230º 6kt
Видимость >10km
Погода -
Облачность Clouds and Visibility OK
Давление 1015
Изменить No Significant change
Необработанный UARR 051900Z 23003MPS CAVOK 06/M01 Q1015 R22/CLRD70 NOSIG RMK QFE758/1010

VFR

6°C / -1°C

[Больше]
Ветер 230º 4kt
Видимость >10km
Погода -
Облачность Clouds and Visibility OK
Давление 1015
Изменить No Significant change
Необработанный UARR 051830Z 23002MPS CAVOK 06/M01 Q1015 R22/CLRD70 NOSIG RMK QFE758/1010

VFR

8°C / -1°C

[Больше]
Ветер 260º 6kt
Видимость >10km
Погода -
Облачность Clouds and Visibility OK
Давление 1015
Изменить No Significant change
Необработанный UARR 051800Z 26003MPS CAVOK 08/M01 Q1015 R22/CLRD70 NOSIG RMK QFE757/1010

VFR

9°C / -1°C

[Больше]
Ветер 260º 6kt
Видимость >10km
Погода -
Облачность Clouds and Visibility OK
Давление 1015
Изменить No Significant change
Необработанный UARR 051730Z 26003MPS CAVOK 09/M01 Q1015 R22/CLRD70 NOSIG RMK QFE757/1010

VFR

9°C / -1°C

[Больше]
Ветер 270º 6kt
Видимость >10km
Погода -
Облачность Clouds and Visibility OK
Давление 1014
Изменить No Significant change
Необработанный UARR 051700Z 27003MPS CAVOK 09/M01 Q1014 R22/CLRD70 NOSIG RMK QFE757/1010

VFR

10°C / -1°C

[Больше]
Ветер 290º 8kt
Видимость >10km
Погода -
Облачность Clouds and Visibility OK
Давление 1014
Изменить No Significant change
Необработанный UARR 051630Z 29004MPS CAVOK 10/M01 Q1014 R22/CLRD70 NOSIG RMK QFE757/1010

VFR

12°C / -2°C

[Больше]
Ветер 300º 10kt
Видимость >10km
Погода -
Облачность Clouds and Visibility OK
Давление 1014
Изменить No Significant change
Необработанный UARR 051600Z 30005MPS CAVOK 12/M02 Q1014 R22/CLRD70 NOSIG RMK QFE757/1009

VFR

13°C / -2°C

[Больше]
Ветер 290º 12kt
Видимость >10km
Погода -
Облачность Clouds and Visibility OK
Давление 1013
Изменить No Significant change
Необработанный UARR 051530Z 29006MPS CAVOK 13/M02 Q1013 R22/CLRD70 NOSIG RMK QFE756/1009

TAF for 51.15°С 51.54°В (UARR)

From till


From till Wind 240º 8kt. Visibility 10km or more. Nil Significant Cloud.
Temporarly from till Wind variable 4kt.

Необработанный: TAF UARR 060203Z 0603/0612 24004MPS CAVOK TEMPO 0603/0605 VRB02MPS

Current satellite and rain images for 51.15°С 51.54°В

Указатель местности находится на 51.15°С 51.54°В. [Больше]

The real-time satellite image combines visible light during daytime with infrared radiation during nighttime. At night, the image is not dark as infrared radiation can detect temperature differences. Unfortunately, low clouds and fog are difficult to distinguish from ground temperatures and thus can be almost invisible during the night. Meteosat satellite images for Europe are updated in real-time every 5 minutes. GOES-16/GOES-17 (North & South America) and Himawari (Asia) images update every 10 minutes.

Копирайт 2021 EUMETSAT / meteoblue. / Копирайт 2021 meteoblue